createdAt,value
2018-10-09T00:01:55.459Z,11.00
2018-10-09T00:04:24.003Z,10.70
2018-10-09T00:06:52.518Z,10.60
2018-10-09T00:09:20.975Z,10.50
2018-10-09T00:11:49.474Z,10.50
2018-10-09T00:14:18.203Z,10.40
2018-10-09T00:16:46.683Z,10.40
2018-10-09T00:19:15.139Z,10.30
2018-10-09T00:21:43.614Z,10.50
2018-10-09T00:24:12.305Z,10.60
2018-10-09T00:26:41.139Z,10.50
2018-10-09T00:29:09.600Z,10.50
2018-10-09T00:31:38.094Z,10.60
2018-10-09T00:34:06.599Z,10.70
2018-10-09T00:36:35.277Z,10.70
2018-10-09T00:39:05.059Z,10.80
2018-10-09T00:41:33.571Z,10.70
2018-10-09T00:44:02.080Z,10.60
2018-10-09T00:46:30.918Z,10.50
2018-10-09T00:48:59.382Z,10.50
2018-10-09T00:51:27.962Z,10.50
2018-10-09T00:53:56.486Z,10.60
2018-10-09T00:56:24.942Z,10.50
2018-10-09T00:58:53.634Z,10.60
2018-10-09T01:01:22.415Z,10.60
2018-10-09T01:03:50.904Z,10.60
2018-10-09T01:06:19.406Z,10.60
2018-10-09T01:08:47.862Z,10.60
2018-10-09T01:11:16.302Z,10.60
2018-10-09T01:13:44.782Z,10.60
2018-10-09T01:16:13.298Z,10.70
2018-10-09T01:18:42.498Z,10.80
2018-10-09T01:21:11.579Z,11.00
2018-10-09T01:23:40.154Z,10.90
2018-10-09T01:26:08.714Z,10.80
2018-10-09T01:28:37.190Z,10.70
2018-10-09T01:31:05.927Z,10.70
2018-10-09T01:33:34.403Z,10.70
2018-10-09T01:36:02.858Z,10.60
2018-10-09T01:38:31.307Z,10.60
2018-10-09T01:40:59.831Z,10.60
2018-10-09T01:43:28.292Z,10.80
2018-10-09T01:45:56.771Z,10.70
2018-10-09T01:48:25.225Z,10.70
2018-10-09T01:50:53.706Z,10.90
2018-10-09T01:53:22.195Z,10.80
2018-10-09T01:55:50.642Z,10.70
2018-10-09T01:58:19.107Z,10.60
2018-10-09T02:00:47.565Z,10.70
2018-10-09T02:03:16.062Z,10.70
2018-10-09T02:05:44.531Z,10.60
2018-10-09T02:08:13.014Z,10.70
2018-10-09T02:10:41.480Z,10.60
2018-10-09T02:13:09.961Z,10.70
2018-10-09T02:15:38.790Z,10.80
2018-10-09T02:18:07.309Z,10.60
2018-10-09T02:20:35.806Z,10.40
2018-10-09T02:23:04.298Z,10.30
2018-10-09T02:25:33.026Z,10.30
2018-10-09T02:28:01.590Z,10.20
2018-10-09T02:30:30.040Z,10.20
2018-10-09T02:32:58.508Z,10.10
2018-10-09T02:35:26.962Z,10.30
2018-10-09T02:37:55.467Z,10.10
2018-10-09T02:40:24.015Z,10.10
2018-10-09T02:42:52.778Z,10.00
2018-10-09T02:45:21.549Z,10.00
2018-10-09T02:47:50.039Z,9.80
2018-10-09T02:50:18.467Z,9.70
2018-10-09T02:52:47.230Z,9.70
2018-10-09T02:55:15.658Z,9.90
2018-10-09T02:57:44.137Z,10.00
2018-10-09T03:00:12.606Z,10.00
2018-10-09T03:02:41.086Z,9.90
2018-10-09T03:05:09.559Z,9.90
2018-10-09T03:07:38.022Z,10.00
2018-10-09T03:10:06.514Z,10.00
2018-10-09T03:12:35.047Z,10.00
2018-10-09T03:15:03.543Z,9.90
2018-10-09T03:17:31.999Z,9.80
2018-10-09T03:20:00.443Z,9.60
2018-10-09T03:22:28.885Z,9.50
2018-10-09T03:24:57.350Z,9.40
2018-10-09T03:27:25.818Z,9.30
2018-10-09T03:29:54.362Z,9.40
2018-10-09T03:32:22.830Z,9.40
2018-10-09T03:34:51.290Z,9.30
2018-10-09T03:37:19.726Z,9.40
2018-10-09T03:39:48.334Z,9.70
2018-10-09T03:42:17.153Z,9.80
2018-10-09T03:44:45.613Z,9.90
2018-10-09T03:47:14.073Z,9.80
2018-10-09T03:49:42.850Z,9.70
2018-10-09T03:52:11.271Z,9.70
2018-10-09T03:54:39.754Z,9.80
2018-10-09T03:57:08.218Z,9.70
2018-10-09T03:59:37.004Z,9.60
2018-10-09T04:02:05.449Z,9.60
2018-10-09T04:04:34.236Z,9.50
2018-10-09T04:07:02.689Z,9.30
2018-10-09T04:09:31.228Z,9.20
2018-10-09T04:11:59.637Z,9.40
2018-10-09T04:14:28.102Z,9.10
2018-10-09T04:16:56.545Z,9.10
2018-10-09T04:19:25.143Z,9.00
2018-10-09T04:21:53.514Z,8.90
2018-10-09T04:24:22.172Z,8.90
2018-10-09T04:26:50.670Z,8.90
2018-10-09T04:29:19.182Z,9.00
2018-10-09T04:31:48.527Z,9.00
2018-10-09T04:34:17.397Z,9.10
2018-10-09T04:36:46.027Z,9.10
2018-10-09T04:39:14.774Z,9.10
2018-10-09T04:41:43.549Z,9.10
2018-10-09T04:44:12.349Z,9.00
2018-10-09T04:46:40.914Z,9.00
2018-10-09T04:49:09.381Z,9.00
2018-10-09T04:51:37.931Z,8.90
2018-10-09T04:54:06.474Z,9.00
2018-10-09T04:56:35.083Z,9.10
2018-10-09T04:59:03.658Z,8.90
2018-10-09T05:01:33.089Z,9.00
2018-10-09T05:04:01.637Z,8.90
2018-10-09T05:06:30.092Z,9.00
2018-10-09T05:08:58.569Z,9.30
2018-10-09T05:11:27.339Z,9.20
2018-10-09T05:13:55.815Z,8.90
2018-10-09T05:16:24.300Z,9.00
2018-10-09T05:18:52.774Z,8.90
2018-10-09T05:21:21.210Z,8.80
2018-10-09T05:23:49.667Z,8.90
2018-10-09T05:26:18.166Z,8.80
2018-10-09T05:28:46.912Z,8.90
2018-10-09T05:31:15.654Z,8.90
2018-10-09T05:33:44.181Z,8.70
2018-10-09T05:36:12.624Z,8.60
2018-10-09T05:38:41.107Z,8.60
2018-10-09T05:41:10.000Z,8.50
2018-10-09T05:43:38.698Z,8.60
2018-10-09T05:46:07.680Z,8.70
2018-10-09T05:48:37.179Z,8.60
2018-10-09T05:51:14.614Z,8.70
2018-10-09T05:53:43.376Z,8.70
2018-10-09T05:56:42.698Z,8.80
2018-10-09T05:59:11.238Z,8.80
2018-10-09T06:01:40.521Z,8.90
2018-10-09T06:04:09.243Z,9.10
2018-10-09T06:06:37.719Z,9.00
2018-10-09T06:09:08.190Z,9.10
2018-10-09T06:11:36.885Z,9.00
2018-10-09T06:14:05.366Z,9.00
2018-10-09T06:16:33.822Z,8.90
2018-10-09T06:19:02.258Z,9.00
2018-10-09T06:21:30.770Z,9.00
2018-10-09T06:23:59.538Z,9.00
2018-10-09T06:26:28.037Z,9.20
2018-10-09T06:28:56.473Z,9.20
2018-10-09T06:31:24.965Z,9.20
2018-10-09T06:33:53.429Z,9.10
2018-10-09T06:36:22.198Z,9.10
2018-10-09T06:38:50.671Z,9.20
2018-10-09T06:41:19.179Z,9.10
2018-10-09T06:43:47.931Z,9.30
2018-10-09T06:46:18.140Z,9.40
2018-10-09T06:48:47.870Z,9.60
2018-10-09T06:51:16.356Z,9.70
2018-10-09T06:53:45.129Z,9.70
2018-10-09T06:56:13.814Z,10.00
2018-10-09T06:58:42.970Z,10.10
2018-10-09T07:01:11.449Z,10.20
2018-10-09T07:03:39.903Z,10.40
2018-10-09T07:06:08.747Z,10.50
2018-10-09T07:08:37.358Z,10.60
2018-10-09T07:11:05.855Z,10.70
2018-10-09T07:13:34.336Z,10.80
2018-10-09T07:16:03.206Z,10.70
2018-10-09T07:18:31.679Z,10.90
2018-10-09T07:21:00.164Z,10.80
2018-10-09T07:23:28.618Z,10.90
2018-10-09T07:25:57.126Z,10.90
2018-10-09T07:28:25.883Z,11.10
2018-10-09T07:30:54.358Z,11.20
2018-10-09T07:33:22.799Z,11.20
2018-10-09T07:35:51.274Z,11.40
2018-10-09T07:38:19.734Z,11.40
2018-10-09T07:40:48.241Z,11.40
2018-10-09T07:43:16.695Z,11.50
2018-10-09T07:45:45.122Z,11.60
2018-10-09T07:48:13.869Z,11.70
2018-10-09T07:50:42.351Z,11.80
2018-10-09T07:53:11.739Z,11.80
2018-10-09T07:55:40.179Z,11.90
2018-10-09T07:58:08.955Z,12.20
2018-10-09T08:00:37.394Z,12.00
2018-10-09T08:03:05.938Z,12.10
2018-10-09T08:05:34.400Z,12.20
2018-10-09T08:08:02.923Z,12.30
2018-10-09T08:10:31.801Z,12.20
2018-10-09T08:13:00.251Z,12.30
2018-10-09T08:15:28.725Z,12.00
2018-10-09T08:17:57.559Z,11.90
2018-10-09T08:20:26.017Z,12.20
2018-10-09T08:22:54.590Z,12.40
2018-10-09T08:25:23.020Z,12.50
2018-10-09T08:27:51.486Z,12.70
2018-10-09T08:30:19.925Z,12.90
2018-10-09T08:32:48.426Z,13.10
2018-10-09T08:35:16.909Z,13.20
2018-10-09T08:37:45.381Z,13.20
2018-10-09T08:40:13.914Z,13.00
2018-10-09T08:42:42.365Z,12.80
2018-10-09T08:45:10.837Z,13.10
2018-10-09T08:47:39.352Z,13.00
2018-10-09T08:50:07.850Z,13.00
2018-10-09T08:52:36.321Z,13.40
2018-10-09T08:55:04.899Z,13.60
2018-10-09T08:57:33.663Z,13.80
2018-10-09T09:00:02.110Z,13.90
2018-10-09T09:02:30.566Z,14.00
2018-10-09T09:04:59.349Z,13.90
2018-10-09T09:07:27.830Z,14.10
2018-10-09T09:09:57.118Z,13.80
2018-10-09T09:12:25.632Z,14.00
2018-10-09T09:14:54.466Z,14.20
2018-10-09T09:17:22.915Z,14.40
2018-10-09T09:19:51.520Z,14.60
2018-10-09T09:22:20.043Z,14.80
2018-10-09T09:24:48.551Z,15.00
2018-10-09T09:27:17.100Z,15.20
2018-10-09T09:29:46.372Z,15.40
2018-10-09T09:32:14.815Z,15.70
2018-10-09T09:34:43.606Z,15.20
2018-10-09T09:37:12.404Z,15.40
2018-10-09T09:39:40.893Z,15.70
2018-10-09T09:42:09.383Z,15.90
2018-10-09T09:44:37.858Z,16.20
2018-10-09T09:47:06.362Z,16.20
2018-10-09T09:49:34.855Z,16.30
2018-10-09T09:52:03.307Z,16.00
2018-10-09T09:54:31.778Z,15.90
2018-10-09T09:57:00.219Z,16.30
2018-10-09T09:59:28.690Z,16.60
2018-10-09T10:01:57.129Z,16.90
2018-10-09T10:04:25.623Z,17.30
2018-10-09T10:06:54.079Z,17.50
2018-10-09T10:09:22.641Z,17.70
2018-10-09T10:11:51.374Z,17.70
2018-10-09T10:14:19.865Z,18.00
2018-10-09T10:16:48.305Z,18.10
2018-10-09T10:19:16.868Z,18.10
2018-10-09T10:21:45.663Z,18.10
2018-10-09T10:24:14.167Z,17.90
2018-10-09T10:26:42.629Z,17.70
2018-10-09T10:29:11.411Z,18.00
2018-10-09T10:31:39.874Z,18.30
2018-10-09T10:34:08.397Z,18.30
2018-10-09T10:36:36.945Z,18.30
2018-10-09T10:39:08.412Z,18.40
2018-10-09T10:41:36.907Z,18.50
2018-10-09T10:44:05.410Z,18.50
2018-10-09T10:46:40.947Z,18.70
2018-10-09T10:49:12.855Z,18.90
2018-10-09T10:51:41.305Z,18.90
2018-10-09T10:54:09.780Z,18.90
2018-10-09T10:56:38.577Z,19.00
2018-10-09T10:59:07.059Z,19.10
2018-10-09T11:01:35.552Z,19.30
2018-10-09T11:04:04.019Z,19.40
2018-10-09T11:06:32.474Z,19.30
2018-10-09T11:09:01.227Z,19.40
2018-10-09T11:11:29.709Z,19.60
2018-10-09T11:13:58.159Z,19.80
2018-10-09T11:16:26.938Z,20.00
2018-10-09T11:18:55.398Z,20.20
2018-10-09T11:21:24.021Z,20.00
2018-10-09T11:23:52.335Z,20.10
2018-10-09T11:26:21.401Z,19.60
2018-10-09T11:28:49.858Z,19.70
2018-10-09T11:31:18.407Z,19.70
2018-10-09T11:33:47.156Z,19.80
2018-10-09T11:36:15.685Z,20.00
2018-10-09T11:38:44.159Z,20.00
2018-10-09T11:41:13.344Z,19.90
2018-10-09T11:43:41.782Z,19.80
2018-10-09T11:46:10.286Z,19.70
2018-10-09T11:48:39.084Z,19.90
2018-10-09T11:51:07.586Z,20.00
2018-10-09T11:53:36.456Z,20.10
2018-10-09T11:56:04.925Z,19.80
2018-10-09T11:58:33.384Z,19.60
2018-10-09T12:01:04.458Z,19.50
2018-10-09T12:03:32.914Z,19.90
2018-10-09T12:06:01.397Z,20.40
2018-10-09T12:08:29.837Z,20.70
2018-10-09T12:10:58.343Z,20.90
2018-10-09T12:13:26.789Z,20.80
2018-10-09T12:15:55.326Z,21.00
2018-10-09T12:18:23.781Z,21.30
2018-10-09T12:20:52.313Z,21.10
2018-10-09T12:23:20.767Z,21.30
2018-10-09T12:25:49.247Z,21.30
2018-10-09T12:28:17.675Z,21.30
2018-10-09T12:30:46.466Z,21.20
2018-10-09T12:33:14.913Z,21.30
2018-10-09T12:35:43.727Z,21.30
2018-10-09T12:38:12.569Z,21.60
2018-10-09T12:40:41.033Z,21.80
2018-10-09T12:43:09.754Z,22.00
2018-10-09T12:45:38.165Z,22.10
2018-10-09T12:48:06.910Z,21.80
2018-10-09T12:50:35.698Z,22.10
2018-10-09T12:53:04.200Z,22.40
2018-10-09T12:55:32.925Z,22.40
2018-10-09T12:58:01.371Z,22.20
2018-10-09T13:00:30.078Z,21.90
2018-10-09T13:02:59.321Z,22.10
2018-10-09T13:05:28.083Z,22.20
2018-10-09T13:07:56.798Z,22.30
2018-10-09T13:10:25.855Z,22.30
2018-10-09T13:12:54.278Z,22.10
2018-10-09T13:15:22.684Z,22.40
2018-10-09T13:17:51.375Z,22.50
2018-10-09T13:20:19.819Z,22.40
2018-10-09T13:22:48.305Z,22.80
2018-10-09T13:25:16.726Z,23.00
2018-10-09T13:27:45.174Z,22.80
2018-10-09T13:30:13.659Z,22.90
2018-10-09T13:32:42.478Z,22.90
2018-10-09T13:35:11.151Z,23.10
2018-10-09T13:37:39.887Z,23.00
2018-10-09T13:40:08.354Z,22.80
2018-10-09T13:42:36.815Z,22.80
2018-10-09T13:45:05.723Z,22.80
2018-10-09T13:47:34.250Z,23.20
2018-10-09T13:50:02.589Z,23.00
2018-10-09T13:52:31.317Z,23.10
2018-10-09T13:54:59.859Z,23.20
2018-10-09T13:57:28.620Z,23.10
2018-10-09T13:59:57.293Z,22.80
2018-10-09T14:02:25.981Z,22.90
2018-10-09T14:04:54.708Z,22.80
2018-10-09T14:07:23.771Z,22.70
2018-10-09T14:09:52.174Z,22.60
2018-10-09T14:12:20.618Z,22.70
2018-10-09T14:14:49.341Z,22.60
2018-10-09T14:17:18.055Z,22.40
2018-10-09T14:19:46.482Z,22.40
2018-10-09T14:22:15.025Z,22.60
2018-10-09T14:24:43.372Z,22.50
2018-10-09T14:27:12.142Z,22.50
2018-10-09T14:29:40.616Z,22.20
2018-10-09T14:32:09.082Z,22.10
2018-10-09T14:34:37.506Z,22.10
2018-10-09T14:37:06.006Z,22.30
2018-10-09T14:39:34.426Z,22.10
2018-10-09T14:42:03.280Z,22.00
2018-10-09T14:44:31.970Z,22.00
2018-10-09T14:47:00.661Z,22.10
2018-10-09T14:49:29.165Z,21.90
2018-10-09T14:51:57.574Z,21.80
2018-10-09T14:54:26.022Z,21.70
2018-10-09T14:56:54.710Z,21.70
2018-10-09T14:59:23.145Z,21.80
2018-10-09T15:01:52.082Z,21.80
2018-10-09T15:04:20.626Z,21.80
2018-10-09T15:06:49.085Z,21.80
2018-10-09T15:09:17.882Z,21.70
2018-10-09T15:11:46.606Z,21.70
2018-10-09T15:14:15.047Z,21.80
2018-10-09T15:16:43.529Z,21.70
2018-10-09T15:19:12.579Z,21.60
2018-10-09T15:21:41.266Z,21.60
2018-10-09T15:24:09.950Z,21.50
2018-10-09T15:26:38.362Z,21.50
2018-10-09T15:29:07.115Z,21.60
2018-10-09T15:31:35.456Z,21.50
2018-10-09T15:34:04.530Z,21.40
2018-10-09T15:36:33.182Z,21.40
2018-10-09T15:39:01.899Z,21.40
2018-10-09T15:41:30.395Z,21.40
2018-10-09T15:43:58.804Z,21.40
2018-10-09T15:46:27.250Z,21.30
2018-10-09T15:48:55.678Z,21.20
2018-10-09T15:51:24.112Z,21.20
2018-10-09T15:53:52.886Z,21.20
2018-10-09T15:56:21.511Z,21.10
2018-10-09T15:58:50.271Z,21.00
2018-10-09T16:01:18.726Z,20.90
2018-10-09T16:03:47.157Z,20.80
2018-10-09T16:06:15.591Z,20.70
2018-10-09T16:08:44.398Z,20.90
2018-10-09T16:11:12.826Z,20.70
2018-10-09T16:13:41.598Z,20.50
2018-10-09T16:16:10.006Z,20.30
2018-10-09T16:18:38.465Z,20.20
2018-10-09T16:21:07.015Z,20.20
2018-10-09T16:23:35.443Z,20.00
2018-10-09T16:26:03.884Z,19.80
2018-10-09T16:28:32.315Z,19.60
2018-10-09T16:31:00.718Z,19.40
2018-10-09T16:33:29.247Z,19.20
2018-10-09T16:35:57.672Z,19.00
2018-10-09T16:38:26.451Z,18.80
2018-10-09T16:40:55.279Z,18.60
2018-10-09T16:43:24.033Z,18.50
2018-10-09T16:45:52.447Z,18.40
2018-10-09T16:48:21.425Z,18.30
2018-10-09T16:50:50.293Z,18.40
2018-10-09T16:53:18.998Z,18.20
2018-10-09T16:55:47.412Z,18.20
2018-10-09T16:58:15.852Z,18.10
2018-10-09T17:00:44.920Z,18.00
2018-10-09T17:03:13.336Z,17.90
2018-10-09T17:05:42.208Z,17.70
2018-10-09T17:08:10.597Z,17.60
2018-10-09T17:10:39.323Z,17.40
2018-10-09T17:13:07.746Z,17.50
2018-10-09T17:15:36.289Z,17.30
2018-10-09T17:18:04.991Z,17.20
2018-10-09T17:20:33.437Z,17.20
2018-10-09T17:23:01.842Z,17.10
2018-10-09T17:25:30.552Z,16.80
2018-10-09T17:27:59.434Z,16.70
2018-10-09T17:30:27.904Z,16.70
2018-10-09T17:32:56.338Z,16.60
2018-10-09T17:35:24.868Z,16.50
2018-10-09T17:37:53.405Z,16.50
2018-10-09T17:40:21.861Z,16.30
2018-10-09T17:42:50.314Z,16.40
2018-10-09T17:45:18.961Z,16.20
2018-10-09T17:47:47.615Z,16.10
2018-10-09T17:50:16.073Z,16.10
2018-10-09T17:52:44.767Z,15.90
2018-10-09T17:55:13.461Z,15.90
2018-10-09T17:57:42.183Z,16.00
2018-10-09T18:00:10.877Z,15.90
2018-10-09T18:02:39.288Z,15.70
2018-10-09T18:05:07.737Z,15.80
2018-10-09T18:07:36.149Z,15.70
2018-10-09T18:10:04.715Z,15.60
2018-10-09T18:12:33.111Z,15.50
2018-10-09T18:15:01.708Z,15.40
2018-10-09T18:17:30.095Z,15.50
2018-10-09T18:19:58.763Z,15.50
2018-10-09T18:22:27.517Z,15.30
2018-10-09T18:24:55.943Z,15.20
2018-10-09T18:27:24.353Z,15.00
2018-10-09T18:29:52.789Z,14.90
2018-10-09T18:32:21.229Z,14.80
2018-10-09T18:34:50.263Z,14.60
2018-10-09T18:37:18.946Z,14.70
2018-10-09T18:39:47.439Z,14.60
2018-10-09T18:42:16.199Z,14.60
2018-10-09T18:44:44.596Z,14.60
2018-10-09T18:47:18.450Z,14.50
2018-10-09T18:49:47.507Z,14.40
2018-10-09T18:52:15.928Z,14.40
2018-10-09T18:54:44.610Z,14.40
2018-10-09T18:57:13.061Z,14.40
2018-10-09T18:59:41.471Z,14.40
2018-10-09T19:02:09.914Z,14.40
2018-10-09T19:04:38.736Z,14.30
2018-10-09T19:07:07.176Z,14.30
2018-10-09T19:09:35.578Z,14.20
2018-10-09T19:12:04.050Z,14.10
2018-10-09T19:14:32.746Z,14.00
2018-10-09T19:17:01.181Z,13.80
2018-10-09T19:19:29.862Z,13.80
2018-10-09T19:21:58.277Z,13.80
2018-10-09T19:24:27.014Z,13.80
2018-10-09T19:26:55.477Z,13.80
2018-10-09T19:29:23.920Z,13.60
2018-10-09T19:31:52.383Z,13.50
2018-10-09T19:34:20.799Z,13.60
2018-10-09T19:36:49.783Z,13.70
2018-10-09T19:39:18.499Z,13.60
2018-10-09T19:41:46.975Z,13.60
2018-10-09T19:44:15.407Z,13.60
2018-10-09T19:46:43.859Z,13.50
2018-10-09T19:49:12.286Z,13.50
2018-10-09T19:51:40.777Z,13.50
2018-10-09T19:54:09.161Z,13.50
2018-10-09T19:56:37.744Z,13.40
2018-10-09T19:59:06.217Z,13.40
2018-10-09T20:01:34.975Z,13.40
2018-10-09T20:04:03.381Z,13.30
2018-10-09T20:06:32.142Z,13.40
2018-10-09T20:09:00.585Z,13.30
2018-10-09T20:11:29.343Z,13.30
2018-10-09T20:13:58.054Z,13.30
2018-10-09T20:16:27.075Z,13.20
2018-10-09T20:18:55.503Z,13.20
2018-10-09T20:21:23.951Z,13.10
2018-10-09T20:23:53.860Z,13.00
2018-10-09T20:26:22.335Z,12.90
2018-10-09T20:28:50.791Z,12.80
2018-10-09T20:31:19.225Z,12.70
2018-10-09T20:33:47.679Z,13.00
2018-10-09T20:36:16.552Z,13.20
2018-10-09T20:38:45.050Z,13.30
2018-10-09T20:41:13.495Z,13.20
2018-10-09T20:43:41.986Z,13.20
2018-10-09T20:46:10.426Z,13.20
2018-10-09T20:48:38.871Z,13.40
2018-10-09T20:51:07.335Z,13.50
2018-10-09T20:53:36.126Z,13.20
2018-10-09T20:56:04.540Z,13.00
2018-10-09T20:58:32.951Z,12.80
2018-10-09T21:01:01.674Z,12.80
2018-10-09T21:03:30.383Z,12.80
2018-10-09T21:05:58.826Z,12.80
2018-10-09T21:08:27.259Z,13.00
2018-10-09T21:10:55.662Z,12.90
2018-10-09T21:13:24.475Z,12.90
2018-10-09T21:15:52.871Z,13.00
2018-10-09T21:18:21.345Z,13.00
2018-10-09T21:20:49.772Z,13.00
2018-10-09T21:23:18.186Z,12.80
2018-10-09T21:25:46.599Z,12.80
2018-10-09T21:28:15.050Z,12.70
2018-10-09T21:30:43.795Z,12.60
2018-10-09T21:33:12.275Z,12.60
2018-10-09T21:35:40.708Z,12.60
2018-10-09T21:38:09.258Z,12.60
2018-10-09T21:40:37.706Z,12.70
2018-10-09T21:43:06.206Z,12.50
2018-10-09T21:45:34.641Z,12.50
2018-10-09T21:48:04.375Z,12.50
2018-10-09T21:50:32.851Z,12.50
2018-10-09T21:53:01.337Z,12.40
2018-10-09T21:55:30.117Z,12.50
2018-10-09T21:57:58.983Z,12.40
2018-10-09T22:00:27.915Z,12.40
2018-10-09T22:02:56.342Z,12.30
2018-10-09T22:05:24.921Z,12.30
2018-10-09T22:07:53.382Z,12.20
2018-10-09T22:10:21.830Z,12.10
2018-10-09T22:12:50.249Z,12.00
2018-10-09T22:15:18.714Z,11.90
2018-10-09T22:17:47.110Z,11.90
2018-10-09T22:20:15.850Z,11.90
2018-10-09T22:22:44.269Z,11.90
2018-10-09T22:25:12.997Z,11.90
2018-10-09T22:27:41.399Z,11.80
2018-10-09T22:30:10.274Z,11.80
2018-10-09T22:32:38.958Z,11.80
2018-10-09T22:35:07.422Z,11.70
2018-10-09T22:37:35.889Z,11.60
2018-10-09T22:40:04.754Z,11.50
2018-10-09T22:42:33.189Z,11.50
2018-10-09T22:45:01.630Z,11.40
2018-10-09T22:47:30.294Z,11.20
2018-10-09T22:49:58.734Z,11.20
2018-10-09T22:52:27.145Z,11.20
2018-10-09T22:54:55.933Z,11.20
2018-10-09T22:57:24.355Z,11.30
2018-10-09T22:59:53.326Z,11.30
2018-10-09T23:02:21.742Z,11.30
2018-10-09T23:04:50.518Z,11.30
2018-10-09T23:07:18.915Z,11.30
2018-10-09T23:09:47.337Z,11.30
2018-10-09T23:12:15.770Z,11.20
2018-10-09T23:14:44.196Z,11.10
2018-10-09T23:17:12.903Z,11.10
2018-10-09T23:19:41.322Z,11.00
2018-10-09T23:22:10.028Z,11.00
2018-10-09T23:24:38.442Z,10.90
2018-10-09T23:27:06.959Z,10.90
2018-10-09T23:29:35.394Z,10.90
2018-10-09T23:32:04.091Z,11.00
2018-10-09T23:34:32.507Z,11.40
2018-10-09T23:37:01.279Z,11.20
2018-10-09T23:39:29.711Z,11.40
2018-10-09T23:41:58.185Z,11.50
2018-10-09T23:44:26.621Z,11.60
2018-10-09T23:46:55.104Z,11.60
2018-10-09T23:49:23.558Z,11.60
2018-10-09T23:51:52.026Z,11.50
2018-10-09T23:54:20.444Z,11.40
2018-10-09T23:56:48.950Z,11.30
2018-10-09T23:59:17.427Z,11.10
